Terminal Aerodrome Forecast
Issued by NWS

Home | Current Version | Previous Version | Text Only | Print | Product List | Glossary On
Versions: 1 2 3 4 5 6 7 8 9 10 11 12 13 14
000
FTUS45 KMSO 121734
TAFSMN
TAF
KSMN 121734Z 1218/1318 VRB03KT 5SM -SN BR OVC003
      TEMPO 1218/1221 2SM -SN
     FM130600 VRB03KT 4SM BR OVC003=

USA.gov is the U.S. government's official web portal to all federal, state and local government web resources and services.